Time;durP1;ratioP1;P1;durP2;ratioP2;P2;SDS_P1;SDS_P2;PMS_P1;PMS_P2;Temp;Humidity;BMP_temperature;BMP_pressure;BME280_temperature;BME280_humidity;BME280_pressure;Samples;Min_cycle;Max_cycle;Signal;HPM_P1;HPM_P2
2021/12/02 00:01:53;;;;;;;0.30;0.20;;;;;;;4.50;100.00;95150.47;5091987;28;20428;-53
2021/12/02 00:04:21;;;;;;;0.30;0.20;;;;;;;4.36;100.00;95147.34;5092081;28;20421;-53
2021/12/02 00:06:50;;;;;;;0.33;0.27;;;;;;;4.14;100.00;95154.25;5091367;28;20482;-53
2021/12/02 00:09:18;;;;;;;0.87;0.87;;;;;;;4.57;100.00;95159.00;5091914;28;20456;-53
2021/12/02 00:11:48;;;;;;;0.60;0.60;;;;;;;4.31;100.00;95138.56;5092101;28;20868;-54
2021/12/02 00:14:23;;;;;;;0.30;0.20;;;;;;;4.31;100.00;95167.41;5092029;28;20428;-53
2021/12/02 00:17:04;;;;;;;0.50;0.50;;;;;;;4.30;100.00;95132.50;5091714;28;20874;-53
2021/12/02 00:22:21;;;;;;;0.93;0.93;;;;;;;4.45;100.00;95151.16;5091678;28;20550;-53
2021/12/02 00:24:55;;;;;;;0.40;0.40;;;;;;;4.62;100.00;95148.59;5091740;28;20467;-53
2021/12/02 00:27:28;;;;;;;0.43;0.40;;;;;;;3.64;100.00;95156.63;5092632;28;20545;-53
2021/12/02 00:29:58;;;;;;;1.80;1.70;;;;;;;4.16;100.00;95143.53;5095481;28;21026;-53
2021/12/02 00:32:28;;;;;;;0.30;0.30;;;;;;;4.28;100.00;95137.22;5095522;28;20940;-53
2021/12/02 00:34:58;;;;;;;0.40;0.30;;;;;;;3.97;100.00;95108.81;5095225;28;20473;-53
2021/12/02 00:37:27;;;;;;;1.73;1.13;;;;;;;4.25;100.00;95136.91;5095477;28;20454;-53
2021/12/02 00:39:56;;;;;;;0.30;0.20;;;;;;;4.45;100.00;95147.75;5095258;28;20467;-53
2021/12/02 00:42:27;;;;;;;0.30;0.20;;;;;;;4.24;100.00;95151.03;5095496;28;20859;-53
2021/12/02 00:44:58;;;;;;;1.20;1.10;;;;;;;3.50;100.00;95150.03;5095666;28;20489;-54
2021/12/02 00:47:27;;;;;;;1.13;1.00;;;;;;;3.71;100.00;95146.84;5095342;28;20467;-53
2021/12/02 00:49:56;;;;;;;0.30;0.20;;;;;;;4.16;100.00;95148.78;5095586;28;20474;-53
2021/12/02 00:52:26;;;;;;;0.40;0.37;;;;;;;4.25;100.00;95157.88;5095330;28;20424;-53
2021/12/02 00:54:55;;;;;;;0.30;0.20;;;;;;;3.11;100.00;95069.56;5095281;28;20956;-53
2021/12/02 00:57:24;;;;;;;0.87;0.87;;;;;;;3.23;100.00;95122.72;5095035;28;20459;-54
2021/12/02 00:59:56;;;;;;;0.47;0.47;;;;;;;3.28;100.00;95167.38;5095121;28;20442;-53
2021/12/02 01:02:24;;;;;;;0.77;0.77;;;;;;;3.67;100.00;95158.78;5095424;28;20481;-53
2021/12/02 01:04:54;;;;;;;0.30;0.20;;;;;;;3.94;100.00;95151.25;5095072;28;20473;-53
2021/12/02 01:07:22;;;;;;;0.30;0.20;;;;;;;4.02;100.00;95140.38;5095385;28;20452;-54
2021/12/02 01:09:51;;;;;;;1.50;1.20;;;;;;;3.87;100.00;95144.53;5095196;28;20502;-53
2021/12/02 01:12:19;;;;;;;0.30;0.20;;;;;;;3.90;100.00;95138.84;5094953;28;20446;-53
2021/12/02 01:14:48;;;;;;;0.50;0.50;;;;;;;4.13;100.00;95149.22;5095067;28;20439;-54
2021/12/02 01:17:18;;;;;;;0.87;0.87;;;;;;;3.81;100.00;95144.44;5094851;28;20449;-53
2021/12/02 01:19:46;;;;;;;0.30;0.20;;;;;;;4.06;100.00;95143.31;5093731;28;20485;-53
2021/12/02 01:22:16;;;;;;;0.53;0.53;;;;;;;3.62;100.00;95140.34;5094766;28;20955;-53
2021/12/02 01:24:50;;;;;;;0.30;0.20;;;;;;;4.04;100.00;95140.94;5093877;28;20440;-53
2021/12/02 01:27:21;;;;;;;0.40;0.40;;;;;;;2.87;100.00;95102.00;5094956;28;20463;-53
2021/12/02 01:29:49;;;;;;;0.40;0.40;;;;;;;3.58;100.00;95131.34;5094411;28;21113;-53
2021/12/02 01:32:21;;;;;;;0.30;0.30;;;;;;;3.31;100.00;95140.72;5094842;28;20799;-53
2021/12/02 01:34:50;;;;;;;0.50;0.50;;;;;;;3.68;100.00;95123.72;5094645;28;20781;-53
2021/12/02 01:37:19;;;;;;;0.63;0.63;;;;;;;4.05;100.00;95136.50;5093872;28;20462;-53
2021/12/02 01:39:50;;;;;;;0.30;0.20;;;;;;;4.22;100.00;95127.66;5093511;28;20459;-53
2021/12/02 01:42:27;;;;;;;1.03;1.03;;;;;;;3.05;100.00;95092.22;5094547;28;20555;-53
2021/12/02 01:44:57;;;;;;;1.10;0.70;;;;;;;3.01;100.00;95143.41;5094265;28;20436;-53
2021/12/02 01:47:31;;;;;;;0.50;0.50;;;;;;;2.55;100.00;95141.50;5094429;28;20424;-53
2021/12/02 01:50:03;;;;;;;4.33;3.07;;;;;;;2.18;100.00;95150.47;5094145;28;20963;-53
2021/12/02 01:52:33;;;;;;;1.63;1.53;;;;;;;1.73;100.00;95147.41;5094197;28;20416;-53
2021/12/02 01:55:07;;;;;;;2.10;2.00;;;;;;;1.44;100.00;95132.50;5093663;28;20460;-53
2021/12/02 01:57:39;;;;;;;0.40;0.40;;;;;;;1.70;100.00;95150.47;5094158;28;20457;-53
2021/12/02 02:00:11;;;;;;;0.83;0.83;;;;;;;2.53;100.00;95140.94;5094624;28;20511;-53
2021/12/02 02:02:41;;;;;;;4.20;3.90;;;;;;;2.31;100.00;95139.84;5094283;28;20436;-53
2021/12/02 02:05:13;;;;;;;1.70;1.60;;;;;;;1.82;100.00;95140.88;5093889;28;20923;-53
2021/12/02 02:07:54;;;;;;;2.37;2.20;;;;;;;2.47;100.00;95128.78;5093929;28;20787;-53
2021/12/02 02:10:23;;;;;;;0.40;0.40;;;;;;;2.23;100.00;95153.22;5093924;28;20432;-53
2021/12/02 02:12:51;;;;;;;0.50;0.40;;;;;;;2.50;100.00;95151.06;5094300;28;20424;-53
2021/12/02 02:15:20;;;;;;;0.33;0.27;;;;;;;2.26;100.00;95152.00;5093747;28;20480;-53
2021/12/02 02:17:55;;;;;;;0.70;0.70;;;;;;;2.27;100.00;95156.22;5093972;28;20486;-53
2021/12/02 02:20:26;;;;;;;0.30;0.20;;;;;;;3.07;100.00;95157.44;5093862;28;20459;-53
2021/12/02 02:22:54;;;;;;;0.53;0.53;;;;;;;3.39;100.00;95158.69;5094103;28;20516;-53
2021/12/02 02:25:23;;;;;;;0.30;0.20;;;;;;;3.25;100.00;95144.25;5093409;28;20841;-53
2021/12/02 02:27:51;;;;;;;0.67;0.67;;;;;;;3.36;100.00;95153.94;5093692;28;20428;-53
2021/12/02 02:30:19;;;;;;;0.30;0.20;;;;;;;3.84;100.00;95151.81;5093275;28;20500;-53
2021/12/02 02:32:48;;;;;;;0.40;0.33;;;;;;;3.03;100.00;95153.69;5093394;28;20495;-53
2021/12/02 02:35:16;;;;;;;0.70;0.70;;;;;;;3.19;100.00;95151.19;5093318;28;20493;-53
2021/12/02 02:37:46;;;;;;;0.60;0.60;;;;;;;2.83;100.00;95153.19;5093056;28;20929;-53
2021/12/02 02:40:16;;;;;;;0.80;0.80;;;;;;;2.72;100.00;95143.50;5093256;28;20428;-53
2021/12/02 02:42:48;;;;;;;1.63;1.53;;;;;;;2.26;100.00;95152.78;5093081;28;21017;-53
2021/12/02 02:45:17;;;;;;;0.30;0.20;;;;;;;2.87;100.00;95154.34;5093030;28;20489;-53
2021/12/02 02:47:45;;;;;;;0.50;0.50;;;;;;;2.90;100.00;95143.41;5092996;28;20909;-53
2021/12/02 02:50:16;;;;;;;0.30;0.20;;;;;;;2.92;100.00;95151.84;5092797;28;20516;-53
2021/12/02 02:52:47;;;;;;;0.80;0.80;;;;;;;2.34;100.00;95152.50;5093078;28;20428;-53
2021/12/02 02:55:21;;;;;;;0.40;0.30;;;;;;;2.83;100.00;95147.97;5092904;28;20420;-53
2021/12/02 02:57:59;;;;;;;0.30;0.30;;;;;;;2.42;100.00;95154.81;5093206;28;20443;-53
2021/12/02 03:00:32;;;;;;;0.90;0.90;;;;;;;2.81;100.00;95108.91;5092761;28;20865;-53
2021/12/02 03:03:15;;;;;;;2.77;2.00;;;;;;;2.13;100.00;95171.25;5092882;28;20475;-53
2021/12/02 03:06:00;;;;;;;2.07;1.97;;;;;;;2.64;100.00;95146.44;5093037;28;20413;-53
2021/12/02 03:08:37;;;;;;;0.30;0.20;;;;;;;3.17;100.00;95152.44;5092580;28;21016;-53
2021/12/02 03:11:09;;;;;;;0.40;0.30;;;;;;;2.72;100.00;95148.72;5092715;28;20459;-53
2021/12/02 03:13:45;;;;;;;1.00;0.90;;;;;;;3.03;100.00;95151.06;5092634;28;20467;-53
2021/12/02 03:19:00;;;;;;;0.80;0.80;;;;;;;3.26;100.00;95138.00;5091915;28;20436;-53
2021/12/02 03:21:29;;;;;;;3.80;3.50;;;;;;;3.19;100.00;95151.19;5092424;28;20517;-53
2021/12/02 03:24:00;;;;;;;0.40;0.40;;;;;;;2.74;100.00;95141.44;5092601;28;20421;-53
2021/12/02 03:26:31;;;;;;;0.40;0.40;;;;;;;3.00;100.00;95147.09;5092022;28;20448;-53
2021/12/02 03:29:00;;;;;;;5.00;1.17;;;;;;;3.01;100.00;95142.66;5092267;28;20436;-53
2021/12/02 03:31:29;;;;;;;0.30;0.20;;;;;;;2.88;100.00;95062.53;5092143;28;20514;-53
2021/12/02 03:33:58;;;;;;;0.67;0.67;;;;;;;2.56;100.00;95077.72;5092475;28;20428;-53
2021/12/02 03:36:28;;;;;;;0.90;0.90;;;;;;;3.08;100.00;95131.03;5092214;28;20855;-53
2021/12/02 03:38:56;;;;;;;1.40;1.40;;;;;;;2.74;100.00;95144.88;5092439;28;20509;-53
2021/12/02 03:41:26;;;;;;;0.40;0.30;;;;;;;2.63;100.00;95150.88;5092106;28;20471;-53
2021/12/02 03:43:55;;;;;;;0.50;0.50;;;;;;;3.14;100.00;95130.13;5092116;28;20474;-53
2021/12/02 03:46:25;;;;;;;0.30;0.20;;;;;;;3.50;100.00;95141.38;5092160;28;20429;-53
2021/12/02 03:48:55;;;;;;;1.13;1.07;;;;;;;3.82;100.00;95138.13;5092121;28;20916;-54
2021/12/02 03:51:23;;;;;;;0.30;0.30;;;;;;;3.79;100.00;95143.06;5091737;28;20829;-53
2021/12/02 03:53:52;;;;;;;0.50;0.50;;;;;;;2.82;100.00;95062.63;5091986;28;20854;-53
2021/12/02 03:56:21;;;;;;;0.97;0.97;;;;;;;3.38;100.00;95120.44;5092168;28;20463;-54
2021/12/02 03:58:52;;;;;;;0.50;0.50;;;;;;;3.49;100.00;95137.97;5091923;28;20452;-54
2021/12/02 04:01:22;;;;;;;0.30;0.20;;;;;;;3.58;100.00;95131.34;5091820;28;20456;-54
2021/12/02 04:03:52;;;;;;;0.43;0.43;;;;;;;3.59;100.00;95121.69;5091393;28;20808;-54
2021/12/02 04:06:20;;;;;;;0.83;0.83;;;;;;;3.64;100.00;95119.94;5091902;28;20464;-54
2021/12/02 04:08:52;;;;;;;0.83;0.83;;;;;;;3.59;100.00;95124.28;5092090;28;20429;-54
2021/12/02 04:11:28;;;;;;;1.43;1.23;;;;;;;3.39;100.00;95129.09;5091764;28;20421;-54
2021/12/02 04:14:09;;;;;;;0.43;0.43;;;;;;;3.30;100.00;95112.94;5092100;28;20811;-54
2021/12/02 04:16:39;;;;;;;0.40;0.40;;;;;;;3.33;100.00;95125.56;5091821;28;20489;-54
2021/12/02 04:19:09;;;;;;;0.87;0.87;;;;;;;3.36;100.00;95114.63;5091562;28;20456;-54
2021/12/02 04:21:40;;;;;;;0.47;0.40;;;;;;;3.14;100.00;95124.06;5091907;28;20463;-53
2021/12/02 04:24:09;;;;;;;1.90;1.80;;;;;;;2.51;100.00;95123.88;5091877;28;20511;-53
2021/12/02 04:26:40;;;;;;;0.80;0.80;;;;;;;2.40;100.00;95124.66;5091852;28;20428;-53
2021/12/02 04:29:10;;;;;;;0.63;0.63;;;;;;;2.11;100.00;95134.09;5091655;28;20420;-53
2021/12/02 04:31:41;;;;;;;1.07;1.07;;;;;;;1.72;100.00;95134.59;5091441;28;20511;-53
2021/12/02 04:34:10;;;;;;;1.30;1.30;;;;;;;2.06;100.00;95144.41;5092096;28;20428;-54
2021/12/02 04:36:39;;;;;;;0.80;0.63;;;;;;;1.62;100.00;95124.63;5091555;28;20885;-54
2021/12/02 04:39:08;;;;;;;0.40;0.40;;;;;;;2.21;100.00;95144.00;5091686;28;20450;-54
2021/12/02 04:41:36;;;;;;;1.27;0.40;;;;;;;2.35;100.00;95146.22;5091054;28;20432;-54
2021/12/02 04:44:05;;;;;;;0.30;0.20;;;;;;;2.26;100.00;95110.16;5091429;28;20994;-54
2021/12/02 04:46:35;;;;;;;1.30;1.30;;;;;;;2.19;100.00;95141.63;5091830;28;20454;-54
2021/12/02 04:49:04;;;;;;;0.70;0.70;;;;;;;2.11;100.00;95154.19;5090775;28;20944;-54
2021/12/02 04:51:33;;;;;;;1.47;1.43;;;;;;;2.11;100.00;95139.31;5091465;28;20428;-54
2021/12/02 04:54:01;;;;;;;1.63;1.57;;;;;;;1.89;100.00;95135.59;5091396;28;20447;-54
2021/12/02 04:56:29;;;;;;;0.30;0.20;;;;;;;1.72;100.00;95139.81;5091550;28;20852;-54
2021/12/02 04:58:58;;;;;;;1.73;1.70;;;;;;;1.31;100.00;95137.03;5091225;28;20425;-54
2021/12/02 05:01:26;;;;;;;2.60;1.53;;;;;;;1.60;100.00;95141.53;5091251;28;20515;-54
2021/12/02 05:03:56;;;;;;;2.97;2.30;;;;;;;1.82;100.00;95145.31;5091147;28;21035;-54
2021/12/02 05:06:25;;;;;;;0.40;0.40;;;;;;;1.68;100.00;95143.88;5091126;28;20456;-54
2021/12/02 05:08:53;;;;;;;1.60;1.50;;;;;;;2.00;100.00;95144.50;5091900;28;20424;-54
2021/12/02 05:11:22;;;;;;;2.77;2.67;;;;;;;1.68;100.00;95139.44;5091259;28;20461;-54
2021/12/02 05:13:50;;;;;;;1.53;1.53;;;;;;;1.75;100.00;95139.34;5092828;28;20440;-54
2021/12/02 05:16:21;;;;;;;2.33;2.17;;;;;;;1.60;100.00;95146.75;5095221;28;20432;-54
2021/12/02 05:18:50;;;;;;;0.80;0.80;;;;;;;2.11;100.00;95147.16;5095166;28;20419;-54
2021/12/02 05:21:20;;;;;;;8.53;2.40;;;;;;;2.08;100.00;95146.78;5094094;28;20443;-54
2021/12/02 05:23:53;;;;;;;0.40;0.40;;;;;;;2.30;100.00;95140.88;5094630;28;20506;-54
2021/12/02 05:26:22;;;;;;;1.47;1.47;;;;;;;2.08;100.00;95144.19;5094860;28;20425;-54
2021/12/02 05:28:50;;;;;;;4.50;2.97;;;;;;;1.83;100.00;95147.72;5095043;28;20508;-54
2021/12/02 05:31:19;;;;;;;2.37;2.23;;;;;;;1.40;100.00;95138.34;5093821;28;20555;-54
2021/12/02 05:33:49;;;;;;;1.67;1.57;;;;;;;1.70;100.00;95128.75;5094422;28;20440;-54
2021/12/02 05:36:17;;;;;;;1.40;1.40;;;;;;;1.94;100.00;95148.78;5094364;28;20497;-53
2021/12/02 05:38:47;;;;;;;1.87;1.87;;;;;;;1.73;100.00;95155.25;5094506;28;20479;-54
2021/12/02 05:41:20;;;;;;;3.93;1.73;;;;;;;1.20;100.00;95128.09;5094212;28;20478;-54
2021/12/02 05:43:48;;;;;;;2.73;2.63;;;;;;;1.73;100.00;95159.69;5094326;28;20559;-53
2021/12/02 05:46:17;;;;;;;1.10;1.03;;;;;;;1.54;100.00;95166.72;5094203;28;20936;-53
2021/12/02 05:48:45;;;;;;;1.67;1.67;;;;;;;1.47;100.00;95178.25;5094399;28;20436;-53
2021/12/02 05:51:13;;;;;;;1.03;0.77;;;;;;;1.64;100.00;95166.22;5093914;28;20463;-53
2021/12/02 05:53:42;;;;;;;2.67;1.60;;;;;;;1.88;100.00;95165.34;5094092;28;20960;-53
2021/12/02 05:56:12;;;;;;;1.43;1.43;;;;;;;1.63;100.00;95164.63;5093928;28;21203;-53
2021/12/02 05:58:40;;;;;;;1.17;1.17;;;;;;;1.44;100.00;95156.00;5093952;28;20429;-53
2021/12/02 06:01:09;;;;;;;1.57;1.37;;;;;;;2.05;100.00;95149.88;5094093;28;20432;-53
2021/12/02 06:03:38;;;;;;;1.00;1.00;;;;;;;1.54;100.00;95158.09;5093809;28;20471;-54
2021/12/02 06:06:07;;;;;;;0.77;0.77;;;;;;;1.63;100.00;95146.34;5093613;28;20439;-54
2021/12/02 06:08:37;;;;;;;0.50;0.50;;;;;;;1.76;100.00;95156.63;5093769;28;20857;-53
2021/12/02 06:11:05;;;;;;;2.63;2.43;;;;;;;1.50;100.00;95157.72;5093554;28;20436;-52
2021/12/02 06:13:35;;;;;;;0.43;0.43;;;;;;;1.13;100.00;95143.03;5093931;28;20463;-53
2021/12/02 06:16:04;;;;;;;2.77;2.60;;;;;;;1.94;100.00;95125.28;5093909;28;20440;-53
2021/12/02 06:18:33;;;;;;;0.50;0.40;;;;;;;2.65;100.00;95142.81;5093571;28;20795;-53
2021/12/02 06:21:01;;;;;;;2.20;2.10;;;;;;;2.39;100.00;95151.81;5093503;28;20464;-53
2021/12/02 06:23:30;;;;;;;1.67;1.67;;;;;;;2.50;100.00;95158.91;5092899;28;20865;-53
2021/12/02 06:25:58;;;;;;;6.30;2.40;;;;;;;1.33;100.00;95067.13;5092834;28;20503;-53
2021/12/02 06:28:27;;;;;;;6.20;3.60;;;;;;;1.14;100.00;95166.28;5093086;28;20452;-53
2021/12/02 06:30:57;;;;;;;3.73;3.53;;;;;;;1.48;100.00;95164.97;5093203;28;20864;-54
2021/12/02 06:33:26;;;;;;;2.67;2.50;;;;;;;1.47;100.00;95163.38;5093584;28;20421;-54
2021/12/02 06:35:54;;;;;;;5.77;2.63;;;;;;;0.79;100.00;95170.41;5093474;28;20424;-52
2021/12/02 06:38:23;;;;;;;0.90;0.90;;;;;;;1.13;100.00;95158.69;5092933;28;20932;-53
2021/12/02 06:40:51;;;;;;;1.23;1.23;;;;;;;1.39;100.00;95166.28;5092907;28;20920;-53
2021/12/02 06:43:21;;;;;;;0.97;0.97;;;;;;;1.68;100.00;95167.38;5092717;28;20491;-53
2021/12/02 06:45:50;;;;;;;1.10;1.10;;;;;;;1.75;100.00;95157.66;5093246;28;20862;-53
2021/12/02 06:48:20;;;;;;;1.23;0.93;;;;;;;2.40;100.00;95159.44;5092888;28;20420;-54
2021/12/02 06:50:48;;;;;;;2.00;2.00;;;;;;;2.64;100.00;95149.84;5092541;28;20460;-53
2021/12/02 06:53:17;;;;;;;0.40;0.40;;;;;;;2.92;100.00;95149.22;5091980;28;20859;-53
2021/12/02 06:55:47;;;;;;;0.80;0.80;;;;;;;2.67;100.00;95143.38;5093156;28;20479;-53
2021/12/02 06:58:15;;;;;;;4.37;1.97;;;;;;;2.85;100.00;95143.31;5092327;28;20460;-53
2021/12/02 07:00:44;;;;;;;1.47;1.40;;;;;;;3.25;100.00;95141.63;5092593;28;20416;-53
2021/12/02 07:03:12;;;;;;;4.03;3.90;;;;;;;2.48;100.00;95148.66;5092401;28;20874;-54
2021/12/02 07:05:42;;;;;;;2.80;2.67;;;;;;;2.81;100.00;95134.31;5092442;28;20806;-53
2021/12/02 07:08:11;;;;;;;0.77;0.77;;;;;;;2.63;100.00;95135.19;5092288;28;20524;-54
2021/12/02 07:10:42;;;;;;;3.23;3.13;;;;;;;3.44;100.00;95130.00;5092382;28;20459;-54
2021/12/02 07:13:10;;;;;;;2.60;2.50;;;;;;;3.98;100.00;95109.59;5092634;28;20436;-53
2021/12/02 07:15:43;;;;;;;3.07;2.93;;;;;;;4.63;100.00;95128.41;5092489;28;20460;-53
2021/12/02 07:18:14;;;;;;;3.53;3.43;;;;;;;5.73;98.58;95093.25;5092123;28;20471;-53
2021/12/02 07:20:46;;;;;;;6.53;5.67;;;;;;;5.51;93.16;95131.09;5092151;28;20436;-53
2021/12/02 07:23:15;;;;;;;2.93;2.40;;;;;;;5.08;95.22;95137.78;5092386;28;20420;-53
2021/12/02 07:25:45;;;;;;;6.57;6.10;;;;;;;5.12;94.68;95138.91;5092384;28;20807;-53
2021/12/02 07:28:14;;;;;;;6.53;6.27;;;;;;;4.75;96.27;95116.78;5091898;28;20467;-53
2021/12/02 07:30:43;;;;;;;2.53;2.33;;;;;;;5.05;96.88;95143.53;5091429;28;20472;-52
2021/12/02 07:33:14;;;;;;;1.40;1.30;;;;;;;4.97;94.75;95120.28;5091873;28;20429;-52
2021/12/02 07:35:44;;;;;;;3.83;2.70;;;;;;;4.87;92.19;94980.97;5092572;28;20425;-52
2021/12/02 07:38:13;;;;;;;2.47;2.20;;;;;;;5.98;88.99;95121.72;5090113;28;20432;-53
2021/12/02 07:40:42;;;;;;;1.33;1.23;;;;;;;6.74;80.82;95106.72;5091479;28;21047;-53
2021/12/02 07:43:10;;;;;;;1.63;1.60;;;;;;;6.93;79.72;95097.44;5091421;28;20440;-53
2021/12/02 07:45:39;;;;;;;3.97;3.77;;;;;;;8.19;73.83;95132.47;5092087;28;20490;-52
2021/12/02 07:48:09;;;;;;;0.70;0.70;;;;;;;8.24;76.07;95098.16;5091799;28;20436;-53
2021/12/02 07:50:38;;;;;;;1.43;1.17;;;;;;;8.66;68.24;95138.44;5092057;28;20440;-53
2021/12/02 07:53:09;;;;;;;1.63;1.53;;;;;;;8.91;63.90;95119.19;5091834;28;20459;-53
2021/12/02 07:55:40;;;;;;;1.90;0.93;;;;;;;9.30;63.50;95104.38;5091928;28;20428;-54
2021/12/02 07:58:10;;;;;;;1.50;1.40;;;;;;;9.29;59.96;95116.00;5091560;28;20459;-54
2021/12/02 08:00:40;;;;;;;2.30;2.20;;;;;;;9.90;59.67;95122.00;5092112;28;20420;-54
2021/12/02 08:03:11;;;;;;;1.77;1.53;;;;;;;10.23;59.00;95114.50;5091567;28;20512;-54
2021/12/02 08:05:41;;;;;;;0.70;0.70;;;;;;;10.49;54.89;95121.28;5090858;28;20472;-55
2021/12/02 08:08:11;;;;;;;3.33;3.13;;;;;;;10.91;53.18;95110.94;5091800;28;20459;-56
2021/12/02 08:10:40;;;;;;;2.47;2.37;;;;;;;10.64;52.51;95073.47;5091418;28;20463;-57
2021/12/02 08:13:08;;;;;;;1.53;1.43;;;;;;;10.68;53.72;95112.41;5090908;28;20485;-59
2021/12/02 08:15:37;;;;;;;6.30;2.97;;;;;;;10.99;53.11;95123.63;5091700;28;20428;-60
2021/12/02 08:18:05;;;;;;;1.27;1.17;;;;;;;10.99;52.50;95112.22;5091602;28;20468;-62
2021/12/02 08:20:35;;;;;;;1.97;1.87;;;;;;;11.73;50.85;95119.84;5092386;28;20420;-63
2021/12/02 08:23:04;;;;;;;4.50;3.40;;;;;;;11.43;50.40;95120.88;5093900;28;20910;-62
2021/12/02 08:25:35;;;;;;;2.57;1.50;;;;;;;11.72;51.06;95115.59;5092494;28;20471;-61
2021/12/02 08:28:04;;;;;;;7.33;1.50;;;;;;;12.18;48.85;95106.06;5094246;28;20460;-60
2021/12/02 08:30:37;;;;;;;0.97;0.97;;;;;;;11.16;49.33;95113.41;5092271;28;20507;-59
2021/12/02 08:33:07;;;;;;;1.63;0.97;;;;;;;11.87;49.26;95107.47;5094077;28;20964;-59
2021/12/02 08:35:36;;;;;;;5.10;2.00;;;;;;;12.32;49.25;95114.16;5091635;28;20446;-58
2021/12/02 08:38:05;;;;;;;1.27;1.23;;;;;;;12.41;47.93;95109.78;5091937;28;20499;-57
2021/12/02 08:40:36;;;;;;;0.90;0.90;;;;;;;12.22;48.71;95064.56;5091869;28;20428;-56
2021/12/02 08:43:07;;;;;;;1.00;1.00;;;;;;;12.69;47.11;95125.63;5091285;28;20424;-56
2021/12/02 08:45:37;;;;;;;0.50;0.50;;;;;;;12.94;46.00;95115.69;5090889;28;20606;-56
2021/12/02 08:48:07;;;;;;;0.60;0.60;;;;;;;13.87;45.33;95083.56;5092126;28;20502;-55
2021/12/02 08:50:37;;;;;;;2.13;1.80;;;;;;;13.78;43.69;95104.78;5095241;28;20460;-55
2021/12/02 08:53:07;;;;;;;5.10;4.90;;;;;;;14.39;43.90;95101.75;5095420;28;20498;-54
2021/12/02 08:55:40;;;;;;;0.80;0.80;;;;;;;14.87;42.17;95101.28;5094315;28;20943;-53
2021/12/02 08:58:09;;;;;;;2.63;2.43;;;;;;;15.42;40.74;95093.84;5094782;28;20428;-53
2021/12/02 09:00:40;;;;;;;2.00;0.87;;;;;;;15.53;40.67;95084.53;5094942;28;20798;-52
2021/12/02 09:03:13;;;;;;;1.80;1.10;;;;;;;14.86;41.31;95068.47;5094693;28;20519;-52
2021/12/02 09:05:43;;;;;;;1.87;1.77;;;;;;;14.32;41.98;95076.59;5094343;28;20470;-52
2021/12/02 09:08:11;;;;;;;1.87;1.77;;;;;;;14.38;42.24;95062.06;5094991;28;20842;-52
2021/12/02 09:10:41;;;;;;;4.00;3.70;;;;;;;13.46;43.53;95070.16;5094801;28;20489;-53
2021/12/02 09:13:10;;;;;;;8.43;2.00;;;;;;;14.24;42.44;95056.72;5094411;28;20927;-53
2021/12/02 09:15:40;;;;;;;4.03;1.13;;;;;;;14.38;41.92;95054.84;5094541;28;20424;-53
2021/12/02 09:18:09;;;;;;;3.30;3.20;;;;;;;14.30;42.28;95058.19;5094676;28;20470;-53
2021/12/02 09:20:37;;;;;;;0.80;0.80;;;;;;;14.47;41.77;95054.94;5094667;28;20428;-53
2021/12/02 09:23:06;;;;;;;2.10;2.00;;;;;;;14.63;43.31;95053.50;5094625;28;20943;-53
2021/12/02 09:25:34;;;;;;;1.50;1.40;;;;;;;14.01;43.66;95036.41;5094578;28;20499;-53
2021/12/02 09:28:05;;;;;;;1.33;1.23;;;;;;;13.83;44.05;95040.75;5094707;28;20507;-53
2021/12/02 09:30:34;;;;;;;6.53;2.00;;;;;;;13.90;43.82;95032.34;5094317;28;20471;-53
2021/12/02 09:33:03;;;;;;;1.60;1.50;;;;;;;12.95;44.86;94950.50;5093426;28;20444;-53
2021/12/02 09:35:31;;;;;;;2.00;1.90;;;;;;;13.91;44.30;94999.31;5094500;28;20471;-53
2021/12/02 09:38:00;;;;;;;1.10;1.00;;;;;;;14.37;43.93;95013.25;5094684;28;20472;-53
2021/12/02 09:40:28;;;;;;;2.90;2.50;;;;;;;14.42;43.80;94983.06;5094441;28;20515;-53
2021/12/02 09:42:57;;;;;;;1.17;1.10;;;;;;;15.29;42.05;95004.69;5094109;28;20502;-53
2021/12/02 09:45:27;;;;;;;2.47;1.30;;;;;;;15.28;41.86;95009.25;5093938;28;20500;-61
2021/12/02 09:47:55;;;;;;;0.60;0.50;;;;;;;15.52;42.06;95000.91;5094170;28;20471;-60
2021/12/02 09:50:30;;;;;;;2.83;1.40;;;;;;;16.15;42.62;94984.47;5093939;28;20924;-56
2021/12/02 09:53:05;;;;;;;0.53;0.53;;;;;;;17.69;38.74;94986.25;5093552;28;20992;-56
2021/12/02 09:55:37;;;;;;;4.20;1.87;;;;;;;17.37;38.67;94979.56;5093709;28;20784;-55
2021/12/02 09:58:09;;;;;;;5.77;2.03;;;;;;;15.54;40.84;94947.97;5094190;28;20455;-55
2021/12/02 10:00:41;;;;;;;5.60;1.57;;;;;;;15.14;41.43;94917.00;5092459;28;20952;-55
2021/12/02 10:03:20;;;;;;;1.67;1.20;;;;;;;15.08;42.39;94972.38;5093826;28;20881;-55
2021/12/02 10:06:00;;;;;;;0.80;0.80;;;;;;;15.57;41.02;94968.72;5094034;28;20460;-57
2021/12/02 10:08:33;;;;;;;1.40;1.30;;;;;;;15.62;39.72;94891.13;5093799;28;20511;-56
2021/12/02 10:11:03;;;;;;;0.70;0.70;;;;;;;16.50;39.59;94964.69;5093551;28;20920;-56
2021/12/02 10:13:36;;;;;;;0.60;0.53;;;;;;;16.73;39.31;94957.31;5093988;28;20513;-56
2021/12/02 10:16:16;;;;;;;0.60;0.60;;;;;;;16.67;39.38;94957.81;5094007;28;20463;-56
2021/12/02 10:18:57;;;;;;;1.23;1.23;;;;;;;17.88;38.79;94953.69;5093098;28;20428;-56
2021/12/02 10:21:31;;;;;;;6.13;1.87;;;;;;;17.11;38.38;94949.38;5093800;28;20511;-56
2021/12/02 10:24:07;;;;;;;1.30;1.20;;;;;;;16.91;38.31;94948.16;5093847;28;20502;-56
2021/12/02 10:26:38;;;;;;;3.47;1.90;;;;;;;17.27;37.87;94934.38;5092863;28;20509;-56
2021/12/02 10:29:15;;;;;;;0.87;0.87;;;;;;;16.78;38.28;94900.94;5093428;28;20524;-57
2021/12/02 10:31:48;;;;;;;2.73;2.63;;;;;;;16.49;37.95;94925.66;5092158;28;20487;-56
2021/12/02 10:34:19;;;;;;;2.13;2.03;;;;;;;16.65;38.06;94859.09;5093642;28;20424;-56
2021/12/02 10:36:48;;;;;;;2.10;2.00;;;;;;;16.93;37.48;94902.31;5092958;28;20436;-56
2021/12/02 10:39:20;;;;;;;1.80;1.70;;;;;;;17.82;37.82;94901.38;5092432;28;20463;-56
2021/12/02 10:41:59;;;;;;;0.60;0.57;;;;;;;17.68;36.75;94901.63;5093006;28;20494;-56
2021/12/02 10:44:31;;;;;;;0.73;0.70;;;;;;;17.77;36.29;94886.25;5093068;28;20436;-56
2021/12/02 10:47:06;;;;;;;1.83;1.73;;;;;;;17.43;36.78;94895.22;5092960;28;20562;-56
2021/12/02 10:49:39;;;;;;;3.40;1.87;;;;;;;17.24;37.31;94902.09;5093064;28;20427;-56
2021/12/02 10:52:10;;;;;;;1.03;1.03;;;;;;;18.16;36.50;94866.28;5092896;28;21035;-56
2021/12/02 10:54:44;;;;;;;2.23;1.27;;;;;;;18.31;37.22;94887.97;5092747;28;20429;-56
2021/12/02 10:57:17;;;;;;;3.37;3.17;;;;;;;17.83;38.46;94884.19;5092781;28;20516;-56
2021/12/02 10:59:48;;;;;;;2.30;2.20;;;;;;;19.31;35.53;94882.25;5092808;28;20440;-56
2021/12/02 11:02:23;;;;;;;2.30;2.20;;;;;;;19.54;36.91;94858.44;5093013;28;20464;-56
2021/12/02 11:04:56;;;;;;;2.60;1.30;;;;;;;19.42;33.96;94861.91;5092227;28;20460;-56
2021/12/02 11:07:28;;;;;;;3.90;0.80;;;;;;;18.10;36.13;94766.47;5092568;28;20495;-56
2021/12/02 11:09:59;;;;;;;0.60;0.50;;;;;;;19.00;36.32;94844.34;5092036;28;20432;-56
2021/12/02 11:12:30;;;;;;;2.60;0.67;;;;;;;19.03;33.74;94847.16;5092268;28;20475;-57
2021/12/02 11:15:06;;;;;;;0.50;0.50;;;;;;;19.40;34.24;94852.63;5091786;28;21003;-56
2021/12/02 11:17:42;;;;;;;2.60;1.70;;;;;;;19.87;33.73;94848.31;5092411;28;20432;-56
2021/12/02 11:20:15;;;;;;;0.93;0.80;;;;;;;19.49;34.67;94839.84;5091166;28;20464;-57
2021/12/02 11:22:44;;;;;;;1.33;0.93;;;;;;;19.47;34.10;94828.66;5090927;28;20432;-57
2021/12/02 11:25:14;;;;;;;0.50;0.30;;;;;;;20.76;33.71;94820.13;5090795;28;20425;-56
2021/12/02 11:27:45;;;;;;;1.17;1.03;;;;;;;20.90;31.64;94811.63;5091307;28;20481;-56
2021/12/02 11:30:18;;;;;;;0.80;0.63;;;;;;;20.00;31.70;94812.22;5091855;28;20496;-57
2021/12/02 11:32:54;;;;;;;1.60;1.10;;;;;;;19.55;33.55;94827.75;5091821;28;20421;-57
2021/12/02 11:35:27;;;;;;;0.60;0.60;;;;;;;21.01;31.23;94772.25;5092020;28;20466;-56
2021/12/02 11:38:02;;;;;;;0.97;0.67;;;;;;;21.46;29.99;94810.34;5092347;28;20820;-56
2021/12/02 11:40:33;;;;;;;1.17;1.07;;;;;;;19.86;33.79;94816.41;5092098;28;20493;-57
2021/12/02 11:43:03;;;;;;;1.33;0.63;;;;;;;18.29;35.76;94825.75;5092059;28;20996;-56
2021/12/02 11:45:35;;;;;;;0.93;0.40;;;;;;;19.01;33.95;94779.56;5092311;28;20854;-56
2021/12/02 11:48:06;;;;;;;0.60;0.43;;;;;;;19.84;33.11;94805.97;5092288;28;20436;-57
2021/12/02 11:50:34;;;;;;;0.50;0.47;;;;;;;20.88;31.12;94793.13;5092296;28;20431;-56
2021/12/02 11:53:03;;;;;;;0.50;0.40;;;;;;;20.45;30.28;94778.88;5092292;28;20535;-57
2021/12/02 11:55:34;;;;;;;2.27;1.43;;;;;;;20.24;32.27;94776.38;5091920;28;20432;-57